createdAt,value
2023-05-06T00:00:26.803Z,98852.66
2023-05-06T00:02:53.645Z,98852.19
2023-05-06T00:05:21.751Z,98849.94
2023-05-06T00:07:48.528Z,98846.72
2023-05-06T00:10:15.792Z,98842.09
2023-05-06T00:12:45.892Z,98838.06
2023-05-06T00:15:12.904Z,98843.69
2023-05-06T00:17:49.359Z,98842.38
2023-05-06T00:20:16.303Z,98837.09
2023-05-06T00:22:43.405Z,98837.44
2023-05-06T00:25:10.617Z,98843.66
2023-05-06T00:27:37.563Z,98839.03
2023-05-06T00:30:05.137Z,98836.63
2023-05-06T00:32:31.906Z,98833.25
2023-05-06T00:35:00.135Z,98837.91
2023-05-06T00:37:26.929Z,98832.28
2023-05-06T00:39:53.673Z,98841.78
2023-05-06T00:42:23.136Z,98834.38
2023-05-06T00:44:51.172Z,98832.78
2023-05-06T00:47:19.038Z,98831.34
2023-05-06T00:49:48.556Z,98827.16
2023-05-06T00:52:16.074Z,98830.53
2023-05-06T00:54:45.778Z,98824.75
2023-05-06T00:57:12.595Z,98820.25
2023-05-06T00:59:40.756Z,98826.19
2023-05-06T01:02:09.082Z,98825.22
2023-05-06T01:04:36.335Z,98823.63
2023-05-06T01:07:16.530Z,98822.69
2023-05-06T01:09:57.326Z,98823.78
2023-05-06T01:12:41.451Z,98829.09
2023-05-06T01:15:14.895Z,98818.19
2023-05-06T01:17:51.566Z,98817.84
2023-05-06T01:20:21.285Z,98826.19
2023-05-06T01:22:49.735Z,98825.22
2023-05-06T01:25:22.025Z,98834.34
2023-05-06T01:27:53.372Z,98839.34
2023-05-06T01:30:24.884Z,98840.13
2023-05-06T01:33:13.949Z,98834.84
2023-05-06T01:35:59.935Z,98834.84
2023-05-06T01:39:01.123Z,98840.59
2023-05-06T01:41:33.934Z,98839.81
2023-05-06T01:44:02.259Z,98835.97
2023-05-06T01:46:32.738Z,98828.91
2023-05-06T01:49:07.693Z,98835.00
2023-05-06T01:51:34.811Z,98830.97
2023-05-06T01:54:02.448Z,98832.75
2023-05-06T01:56:32.695Z,98829.53
2023-05-06T01:58:59.935Z,98829.53
2023-05-06T02:01:27.136Z,98825.53
2023-05-06T02:03:54.127Z,98824.56
2023-05-06T02:06:21.239Z,98818.66
2023-05-06T02:08:49.610Z,98821.03
2023-05-06T02:11:16.739Z,98817.84
2023-05-06T02:13:43.689Z,98827.75
2023-05-06T02:16:11.010Z,98830.19
2023-05-06T02:18:41.420Z,98828.59
2023-05-06T02:21:09.980Z,98831.63
2023-05-06T02:23:36.778Z,98829.88
2023-05-06T02:26:04.575Z,98826.00
2023-05-06T02:28:31.620Z,98819.25
2023-05-06T02:30:59.002Z,98826.44
2023-05-06T02:33:26.087Z,98824.19
2023-05-06T02:35:56.123Z,98818.13
2023-05-06T02:38:24.941Z,98819.06
2023-05-06T02:40:53.102Z,98820.19
2023-05-06T02:43:19.852Z,98820.38
2023-05-06T02:45:46.610Z,98816.34
2023-05-06T02:48:13.400Z,98823.84
2023-05-06T02:50:41.072Z,98822.56
2023-05-06T02:53:09.366Z,98818.19
2023-05-06T02:55:36.477Z,98813.72
2023-05-06T02:58:03.304Z,98821.09
2023-05-06T03:00:30.274Z,98824.75
2023-05-06T03:02:57.087Z,98823.13
2023-05-06T03:05:26.972Z,98824.13
2023-05-06T03:07:53.810Z,98821.38
2023-05-06T03:10:20.627Z,98823.78
2023-05-06T03:12:47.491Z,98817.84
2023-05-06T03:15:18.049Z,98821.47
2023-05-06T03:17:46.463Z,98824.84
2023-05-06T03:20:14.114Z,98819.88
2023-05-06T03:22:42.531Z,98816.03
2023-05-06T03:25:10.111Z,98820.34
2023-05-06T03:27:38.609Z,98812.34
2023-05-06T03:30:06.383Z,98812.03
2023-05-06T03:32:33.207Z,98810.44
2023-05-06T03:34:59.983Z,98811.84
2023-05-06T03:37:28.230Z,98808.63
2023-05-06T03:39:58.059Z,98810.72
2023-05-06T03:42:25.222Z,98815.69
2023-05-06T03:44:53.914Z,98812.19
2023-05-06T03:47:20.639Z,98809.72
2023-05-06T03:49:47.569Z,98816.91
2023-05-06T03:52:14.409Z,98815.41
2023-05-06T03:54:41.175Z,98807.84
2023-05-06T03:57:07.965Z,98809.75
2023-05-06T03:59:34.815Z,98806.19
2023-05-06T04:02:01.619Z,98816.22
2023-05-06T04:04:28.399Z,98810.47
2023-05-06T04:06:55.157Z,98811.41
2023-05-06T04:09:21.985Z,98818.56
2023-05-06T04:11:49.082Z,98804.13
2023-05-06T04:14:15.918Z,98807.44
2023-05-06T04:16:42.743Z,98815.19
2023-05-06T04:19:09.526Z,98812.97
2023-05-06T04:21:36.286Z,98813.09
2023-05-06T04:24:03.720Z,98811.34
2023-05-06T04:26:31.354Z,98806.34
2023-05-06T04:28:58.088Z,98811.41
2023-05-06T04:31:25.074Z,98812.53
2023-05-06T04:33:53.499Z,98812.94
2023-05-06T04:36:21.062Z,98821.00
2023-05-06T04:38:47.898Z,98824.59
2023-05-06T04:41:17.870Z,98819.75
2023-05-06T04:43:44.678Z,98823.59
2023-05-06T04:46:11.634Z,98828.72
2023-05-06T04:48:39.137Z,98828.09
2023-05-06T04:51:06.543Z,98834.97
2023-05-06T04:53:33.331Z,98839.59
2023-05-06T04:56:00.162Z,98843.53
2023-05-06T04:58:27.059Z,98840.03
2023-05-06T05:00:54.677Z,98841.63
2023-05-06T05:03:21.649Z,98838.41
2023-05-06T05:05:48.463Z,98839.63
2023-05-06T05:08:15.590Z,98843.94
2023-05-06T05:10:47.850Z,98840.25
2023-05-06T05:13:14.750Z,98848.19
2023-05-06T05:15:41.825Z,98846.78
2023-05-06T05:18:08.915Z,98844.97
2023-05-06T05:20:36.554Z,98848.06
2023-05-06T05:23:03.794Z,98851.28
2023-05-06T05:25:30.690Z,98850.66
2023-05-06T05:27:57.457Z,98854.88
2023-05-06T05:30:24.209Z,98853.63
2023-05-06T05:32:51.100Z,98857.00
2023-05-06T05:35:18.185Z,98862.16
2023-05-06T05:37:44.937Z,98856.59
2023-05-06T05:40:12.224Z,98865.75
2023-05-06T05:42:42.404Z,98856.88
2023-05-06T05:45:09.978Z,98852.28
2023-05-06T05:47:36.914Z,98864.78
2023-05-06T05:50:04.494Z,98867.53
2023-05-06T05:52:31.403Z,98861.97
2023-05-06T05:54:58.231Z,98859.44
2023-05-06T05:57:25.338Z,98859.59
2023-05-06T05:59:52.159Z,98857.84
2023-05-06T06:02:19.024Z,98857.22
2023-05-06T06:04:45.974Z,98865.59
2023-05-06T06:07:12.944Z,98856.16
2023-05-06T06:09:39.775Z,98854.75
2023-05-06T06:12:06.674Z,98853.66
2023-05-06T06:14:33.425Z,98869.25
2023-05-06T06:17:01.396Z,98867.78
2023-05-06T06:19:28.180Z,98868.78
2023-05-06T06:21:55.028Z,98870.88
2023-05-06T06:24:21.849Z,98871.22
2023-05-06T06:26:48.618Z,98873.00
2023-05-06T06:29:15.419Z,98877.97
2023-05-06T06:31:42.766Z,98877.50
2023-05-06T06:34:12.618Z,98873.81
2023-05-06T06:36:44.965Z,98877.69
2023-05-06T06:39:12.991Z,98871.78
2023-05-06T06:41:40.114Z,98877.84
2023-05-06T06:44:07.011Z,98876.41
2023-05-06T06:46:34.320Z,98880.75
2023-05-06T06:49:04.552Z,98881.06
2023-05-06T06:51:31.878Z,98879.13
2023-05-06T06:53:58.776Z,98883.44
2023-05-06T06:56:25.726Z,98880.38
2023-05-06T06:58:53.437Z,98885.03
2023-05-06T07:01:20.456Z,98892.56
2023-05-06T07:03:47.369Z,98894.66
2023-05-06T07:06:14.253Z,98897.03
2023-05-06T07:08:41.148Z,98902.59
2023-05-06T07:11:07.934Z,98901.09
2023-05-06T07:13:35.240Z,98896.41
2023-05-06T07:16:02.138Z,98902.31
2023-05-06T07:18:28.861Z,98899.00
2023-05-06T07:20:55.788Z,98905.16
2023-05-06T07:23:22.587Z,98892.88
2023-05-06T07:25:49.503Z,98897.94
2023-05-06T07:28:16.336Z,98896.97
2023-05-06T07:30:43.528Z,98896.28
2023-05-06T07:33:10.510Z,98894.88
2023-05-06T07:35:37.739Z,98892.13
2023-05-06T07:38:04.853Z,98900.31
2023-05-06T07:40:31.795Z,98897.47
2023-05-06T07:42:58.650Z,98907.09
2023-05-06T07:45:25.611Z,98906.59
2023-05-06T07:47:52.674Z,98905.06
2023-05-06T07:50:19.834Z,98910.94
2023-05-06T07:52:48.195Z,98911.97
2023-05-06T07:55:15.041Z,98912.41
2023-05-06T07:57:41.897Z,98913.88
2023-05-06T08:00:10.373Z,98917.22
2023-05-06T08:02:38.672Z,98917.22
2023-05-06T08:05:07.990Z,98922.91
2023-05-06T08:07:34.968Z,98922.25
2023-05-06T08:10:01.967Z,98920.06
2023-05-06T08:12:28.825Z,98918.81
2023-05-06T08:14:55.862Z,98919.97
2023-05-06T08:17:22.790Z,98917.66
2023-05-06T08:19:49.768Z,98919.38
2023-05-06T08:22:17.453Z,98919.09
2023-05-06T08:24:45.573Z,98919.13
2023-05-06T08:27:12.448Z,98912.69
2023-05-06T08:29:39.750Z,98916.44
2023-05-06T08:32:06.857Z,98913.75
2023-05-06T08:34:34.874Z,98917.06
2023-05-06T08:37:02.444Z,98911.97
2023-05-06T08:39:30.661Z,98914.47
2023-05-06T08:42:01.012Z,98914.53
2023-05-06T08:44:28.029Z,98920.38
2023-05-06T08:46:55.692Z,98919.69
2023-05-06T08:49:22.931Z,98921.63
2023-05-06T08:51:55.373Z,98915.59
2023-05-06T08:54:26.434Z,98915.66
2023-05-06T08:56:59.240Z,98921.16
2023-05-06T08:59:30.326Z,98921.00
2023-05-06T09:01:57.451Z,98923.38
2023-05-06T09:04:24.739Z,98923.78
2023-05-06T09:06:52.047Z,98919.69
2023-05-06T09:09:19.128Z,98925.53
2023-05-06T09:11:53.427Z,98914.16
2023-05-06T09:14:21.882Z,98927.28
2023-05-06T09:16:52.297Z,98919.84
2023-05-06T09:19:22.396Z,98922.88
2023-05-06T09:21:51.570Z,98916.16
2023-05-06T09:24:19.510Z,98919.38
2023-05-06T09:26:47.606Z,98917.19
2023-05-06T09:29:14.665Z,98918.00
2023-05-06T09:31:50.510Z,98919.38
2023-05-06T09:34:17.998Z,98912.19
2023-05-06T09:36:45.256Z,98918.97
2023-05-06T09:39:12.028Z,98907.94
2023-05-06T09:41:39.234Z,98914.91
2023-05-06T09:44:06.197Z,98908.94
2023-05-06T09:46:33.394Z,98901.59
2023-05-06T09:49:02.210Z,98896.47
2023-05-06T09:51:31.029Z,98893.50
2023-05-06T09:53:59.284Z,98894.31
2023-05-06T09:56:27.373Z,98882.16
2023-05-06T09:58:55.905Z,98885.78
2023-05-06T10:01:35.458Z,98887.47
2023-05-06T10:04:12.660Z,98888.50
2023-05-06T10:06:44.261Z,98887.28
2023-05-06T10:09:11.951Z,98879.41
2023-05-06T10:11:39.901Z,98879.50
2023-05-06T10:14:07.812Z,98879.63
2023-05-06T10:16:36.576Z,98878.50
2023-05-06T10:19:06.510Z,98877.94
2023-05-06T10:21:39.314Z,98882.03
2023-05-06T10:24:11.654Z,98879.81
2023-05-06T10:26:41.368Z,98873.84
2023-05-06T10:29:11.791Z,98866.91
2023-05-06T10:31:48.319Z,98860.63
2023-05-06T10:34:19.520Z,98860.22
2023-05-06T10:36:54.113Z,98861.09
2023-05-06T10:39:22.958Z,98855.53
2023-05-06T10:41:49.963Z,98849.56
2023-05-06T10:44:16.776Z,98847.31
2023-05-06T10:47:01.078Z,98846.75
2023-05-06T10:49:27.998Z,98847.50
2023-05-06T10:52:14.880Z,98842.78
2023-05-06T10:54:50.834Z,98843.66
2023-05-06T10:57:18.414Z,98838.13
2023-05-06T10:59:47.468Z,98828.31
2023-05-06T11:02:20.202Z,98827.13
2023-05-06T11:04:59.674Z,98824.78
2023-05-06T11:07:27.123Z,98823.94
2023-05-06T11:10:07.987Z,98818.41
2023-05-06T11:12:55.751Z,98820.81
2023-05-06T11:15:43.166Z,98816.81
2023-05-06T11:18:32.118Z,98830.25
2023-05-06T11:21:08.508Z,98815.22
2023-05-06T11:24:28.471Z,98809.28
2023-05-06T11:26:58.370Z,98805.56
2023-05-06T11:29:27.093Z,98804.50
2023-05-06T11:31:54.096Z,98808.66
2023-05-06T11:34:30.528Z,98808.63
2023-05-06T11:37:06.530Z,98807.22
2023-05-06T11:39:40.526Z,98807.75
2023-05-06T11:42:08.965Z,98809.25
2023-05-06T11:44:39.810Z,98806.59
2023-05-06T11:47:09.900Z,98807.50
2023-05-06T11:49:53.344Z,98807.81
2023-05-06T11:52:21.003Z,98813.16
2023-05-06T11:54:57.215Z,98815.97
2023-05-06T11:57:25.225Z,98804.25
2023-05-06T11:59:54.819Z,98808.63
2023-05-06T12:02:21.857Z,98807.28
2023-05-06T12:04:53.071Z,98808.69
2023-05-06T12:07:20.263Z,98800.47
2023-05-06T12:09:51.289Z,98803.69
2023-05-06T12:12:24.826Z,98792.91
2023-05-06T12:14:53.919Z,98797.75
2023-05-06T12:17:21.178Z,98800.16
2023-05-06T12:19:48.206Z,98802.56
2023-05-06T12:22:20.069Z,98800.19
2023-05-06T12:24:48.935Z,98795.47
2023-05-06T12:27:35.716Z,98798.59
2023-05-06T12:30:04.521Z,98791.06
2023-05-06T12:32:32.232Z,98791.47
2023-05-06T12:35:00.367Z,98796.50
2023-05-06T12:37:30.557Z,98797.94
2023-05-06T12:39:59.425Z,98790.47
2023-05-06T12:42:27.554Z,98787.63
2023-05-06T12:44:55.000Z,98782.31
2023-05-06T12:47:26.086Z,98789.44
2023-05-06T12:50:02.188Z,98788.63
2023-05-06T12:52:30.732Z,98780.16
2023-05-06T12:55:07.639Z,98771.22
2023-05-06T12:57:38.722Z,98776.34
2023-05-06T13:00:07.391Z,98779.56
2023-05-06T13:02:35.210Z,98767.22
2023-05-06T13:05:02.638Z,98768.91
2023-05-06T13:07:29.431Z,98767.44
2023-05-06T13:09:56.262Z,98765.41
2023-05-06T13:12:23.112Z,98759.44
2023-05-06T13:14:50.014Z,98748.84
2023-05-06T13:17:16.985Z,98745.56
2023-05-06T13:19:43.799Z,98739.09
2023-05-06T13:22:10.564Z,98732.34
2023-05-06T13:24:37.706Z,98733.09
2023-05-06T13:27:04.523Z,98733.19
2023-05-06T13:29:31.808Z,98728.63
2023-05-06T13:32:00.980Z,98725.47
2023-05-06T13:34:27.892Z,98727.47
2023-05-06T13:36:56.675Z,98722.16
2023-05-06T13:39:23.898Z,98719.56
2023-05-06T13:41:51.660Z,98721.28
2023-05-06T13:44:20.200Z,98719.69
2023-05-06T13:46:51.934Z,98722.88
2023-05-06T13:49:19.127Z,98719.25
2023-05-06T13:51:46.137Z,98710.06
2023-05-06T13:54:12.972Z,98705.59
2023-05-06T13:56:39.798Z,98712.34
2023-05-06T13:59:08.017Z,98706.47
2023-05-06T14:01:35.230Z,98711.41
2023-05-06T14:04:05.360Z,98705.88
2023-05-06T14:06:32.258Z,98704.28
2023-05-06T14:08:59.544Z,98700.69
2023-05-06T14:11:26.662Z,98698.59
2023-05-06T14:13:56.670Z,98701.00
2023-05-06T14:16:23.574Z,98695.75
2023-05-06T14:18:53.542Z,98688.84
2023-05-06T14:21:20.907Z,98688.06
2023-05-06T14:23:47.740Z,98684.38
2023-05-06T14:26:14.584Z,98684.88
2023-05-06T14:28:41.368Z,98675.03
2023-05-06T14:31:08.238Z,98678.97
2023-05-06T14:33:35.006Z,98677.34
2023-05-06T14:36:03.351Z,98678.47
2023-05-06T14:38:30.822Z,98670.56
2023-05-06T14:40:59.343Z,98667.78
2023-05-06T14:43:26.588Z,98671.06
2023-05-06T14:45:53.665Z,98671.84
2023-05-06T14:48:20.718Z,98667.09
2023-05-06T14:50:47.453Z,98665.88
2023-05-06T14:53:16.840Z,98661.53
2023-05-06T14:55:45.132Z,98657.16
2023-05-06T14:58:11.932Z,98665.47
2023-05-06T15:00:38.692Z,98662.34
2023-05-06T15:03:05.688Z,98664.72
2023-05-06T15:05:32.556Z,98654.41
2023-05-06T15:07:59.317Z,98663.13
2023-05-06T15:10:26.197Z,98656.78
2023-05-06T15:12:53.155Z,98656.41
2023-05-06T15:15:20.489Z,98659.16
2023-05-06T15:17:47.532Z,98648.88
2023-05-06T15:20:14.422Z,98656.34
2023-05-06T15:22:41.542Z,98655.09
2023-05-06T15:25:12.310Z,98663.09
2023-05-06T15:27:41.316Z,98658.34
2023-05-06T15:30:08.805Z,98656.38
2023-05-06T15:32:36.125Z,98653.97
2023-05-06T15:35:04.829Z,98654.81
2023-05-06T15:37:35.141Z,98662.34
2023-05-06T15:40:02.252Z,98657.91
2023-05-06T15:42:29.894Z,98659.06
2023-05-06T15:44:58.038Z,98666.97
2023-05-06T15:47:27.896Z,98657.50
2023-05-06T15:50:10.930Z,98655.09
2023-05-06T15:52:42.925Z,98649.53
2023-05-06T15:55:13.373Z,98658.59
2023-05-06T15:57:43.029Z,98650.69
2023-05-06T16:00:11.077Z,98658.94
2023-05-06T16:02:38.336Z,98653.00
2023-05-06T16:05:06.290Z,98646.59
2023-05-06T16:07:33.016Z,98650.19
2023-05-06T16:09:59.777Z,98647.00
2023-05-06T16:12:26.556Z,98647.41
2023-05-06T16:14:53.519Z,98641.44
2023-05-06T16:17:20.487Z,98643.44
2023-05-06T16:19:47.207Z,98647.34
2023-05-06T16:22:14.002Z,98648.47
2023-05-06T16:24:40.834Z,98645.28
2023-05-06T16:27:07.688Z,98646.47
2023-05-06T16:29:34.411Z,98642.88
2023-05-06T16:32:01.307Z,98640.47
2023-05-06T16:34:28.129Z,98643.22
2023-05-06T16:36:55.029Z,98635.69
2023-05-06T16:39:21.967Z,98645.56
2023-05-06T16:41:48.768Z,98648.31
2023-05-06T16:44:15.641Z,98643.53
2023-05-06T16:46:42.496Z,98635.97
2023-05-06T16:49:09.459Z,98635.09
2023-05-06T16:51:36.516Z,98637.44
2023-05-06T16:54:03.607Z,98632.66
2023-05-06T16:56:40.107Z,98630.56
2023-05-06T16:59:15.252Z,98628.97
2023-05-06T17:01:42.389Z,98624.63
2023-05-06T17:04:09.155Z,98624.22
2023-05-06T17:06:36.282Z,98624.63
2023-05-06T17:09:04.161Z,98624.56
2023-05-06T17:11:30.885Z,98628.50
2023-05-06T17:13:57.574Z,98617.00
2023-05-06T17:16:24.477Z,98618.16
2023-05-06T17:18:51.765Z,98618.09
2023-05-06T17:21:20.283Z,98620.84
2023-05-06T17:23:47.544Z,98614.09
2023-05-06T17:26:16.590Z,98610.06
2023-05-06T17:28:43.707Z,98614.41
2023-05-06T17:31:10.510Z,98612.00
2023-05-06T17:33:37.403Z,98615.16
2023-05-06T17:36:06.854Z,98610.78
2023-05-06T17:38:34.502Z,98607.56
2023-05-06T17:41:02.433Z,98610.22
2023-05-06T17:43:29.348Z,98605.81
2023-05-06T17:45:56.429Z,98605.81
2023-05-06T17:48:23.321Z,98602.19
2023-05-06T17:50:50.136Z,98607.63
2023-05-06T17:53:17.067Z,98606.81
2023-05-06T17:55:43.974Z,98606.81
2023-05-06T17:58:10.892Z,98611.50
2023-05-06T18:00:41.019Z,98613.00
2023-05-06T18:03:08.246Z,98610.59
2023-05-06T18:05:35.836Z,98609.66
2023-05-06T18:08:05.191Z,98603.31
2023-05-06T18:10:32.228Z,98606.75
2023-05-06T18:12:59.280Z,98612.19
2023-05-06T18:15:26.484Z,98612.56
2023-05-06T18:17:53.407Z,98620.69
2023-05-06T18:20:21.417Z,98618.13
2023-05-06T18:22:48.880Z,98621.19
2023-05-06T18:25:15.780Z,98619.00
2023-05-06T18:27:42.835Z,98625.97
2023-05-06T18:30:10.072Z,98626.59
2023-05-06T18:32:37.329Z,98627.13
2023-05-06T18:35:04.528Z,98628.50
2023-05-06T18:37:31.405Z,98634.59
2023-05-06T18:39:58.349Z,98632.91
2023-05-06T18:42:27.489Z,98634.63
2023-05-06T18:44:54.579Z,98643.25
2023-05-06T18:47:25.532Z,98646.53
2023-05-06T18:49:53.568Z,98642.91
2023-05-06T18:52:21.218Z,98644.13
2023-05-06T18:54:48.021Z,98640.56
2023-05-06T18:57:14.983Z,98656.28
2023-05-06T18:59:42.064Z,98664.59
2023-05-06T19:02:08.989Z,98659.56
2023-05-06T19:04:36.019Z,98663.66
2023-05-06T19:07:03.213Z,98669.41
2023-05-06T19:09:32.779Z,98662.41
2023-05-06T19:11:59.788Z,98663.75
2023-05-06T19:14:26.737Z,98665.63
2023-05-06T19:16:53.779Z,98668.53
2023-05-06T19:19:21.478Z,98661.91
2023-05-06T19:21:48.332Z,98672.88
2023-05-06T19:24:15.936Z,98677.75
2023-05-06T19:26:42.762Z,98674.75
2023-05-06T19:29:09.875Z,98673.59
2023-05-06T19:31:36.731Z,98675.00
2023-05-06T19:34:03.923Z,98672.97
2023-05-06T19:36:31.655Z,98665.53
2023-05-06T19:38:58.589Z,98660.56
2023-05-06T19:41:25.949Z,98662.56
2023-05-06T19:43:53.045Z,98662.00
2023-05-06T19:46:20.274Z,98668.31
2023-05-06T19:48:47.404Z,98675.84
2023-05-06T19:51:14.212Z,98675.53
2023-05-06T19:53:41.035Z,98680.09
2023-05-06T19:56:13.414Z,98679.09
2023-05-06T19:58:40.490Z,98676.75
2023-05-06T20:01:07.641Z,98676.41
2023-05-06T20:03:35.752Z,98678.91
2023-05-06T20:06:04.077Z,98679.03
2023-05-06T20:08:31.064Z,98681.50
2023-05-06T20:11:01.486Z,98677.59
2023-05-06T20:13:34.413Z,98680.59
2023-05-06T20:16:01.921Z,98673.06
2023-05-06T20:18:28.793Z,98679.25
2023-05-06T20:20:56.201Z,98677.63
2023-05-06T20:23:25.720Z,98675.72
2023-05-06T20:25:55.616Z,98677.31
2023-05-06T20:28:26.816Z,98671.94
2023-05-06T20:30:55.570Z,98679.03
2023-05-06T20:33:22.399Z,98687.91
2023-05-06T20:35:49.548Z,98686.09
2023-05-06T20:38:16.854Z,98694.22
2023-05-06T20:40:43.719Z,98691.81
2023-05-06T20:43:10.517Z,98693.09
2023-05-06T20:45:37.712Z,98687.72
2023-05-06T20:48:04.984Z,98691.13
2023-05-06T20:50:31.870Z,98690.00
2023-05-06T20:53:01.516Z,98699.44
2023-05-06T20:55:28.372Z,98687.69
2023-05-06T20:57:55.358Z,98683.94
2023-05-06T21:00:22.470Z,98679.94
2023-05-06T21:02:49.647Z,98686.88
2023-05-06T21:05:16.757Z,98680.63
2023-05-06T21:07:44.119Z,98670.00
2023-05-06T21:10:11.426Z,98664.31
2023-05-06T21:12:41.037Z,98677.94
2023-05-06T21:15:09.041Z,98669.25
2023-05-06T21:17:36.519Z,98667.66
2023-05-06T21:20:04.915Z,98667.25
2023-05-06T21:22:33.182Z,98671.53
2023-05-06T21:25:01.063Z,98668.91
2023-05-06T21:27:28.010Z,98667.09
2023-05-06T21:29:54.798Z,98669.28
2023-05-06T21:32:21.693Z,98669.72
2023-05-06T21:34:48.705Z,98665.75
2023-05-06T21:37:19.008Z,98668.34
2023-05-06T21:39:46.240Z,98668.22
2023-05-06T21:42:18.672Z,98650.31
2023-05-06T21:44:45.468Z,98654.06
2023-05-06T21:47:12.281Z,98644.16
2023-05-06T21:49:41.786Z,98651.66
2023-05-06T21:52:08.609Z,98646.72
2023-05-06T21:54:35.511Z,98645.81
2023-05-06T21:57:02.535Z,98660.00
2023-05-06T21:59:29.281Z,98655.66
2023-05-06T22:01:56.076Z,98645.81
2023-05-06T22:04:22.965Z,98649.22
2023-05-06T22:06:50.622Z,98646.31
2023-05-06T22:09:17.474Z,98642.06
2023-05-06T22:11:44.582Z,98653.06
2023-05-06T22:14:11.521Z,98648.72
2023-05-06T22:16:39.428Z,98649.66
2023-05-06T22:19:06.750Z,98657.59
2023-05-06T22:21:34.963Z,98658.53
2023-05-06T22:24:01.891Z,98658.53
2023-05-06T22:26:28.728Z,98660.66
2023-05-06T22:28:56.484Z,98657.44
2023-05-06T22:31:24.507Z,98663.00
2023-05-06T22:33:55.213Z,98657.91
2023-05-06T22:36:22.224Z,98668.78
2023-05-06T22:38:48.996Z,98665.72
2023-05-06T22:41:17.566Z,98661.25
2023-05-06T22:43:44.450Z,98665.66
2023-05-06T22:46:11.339Z,98660.03
2023-05-06T22:48:38.269Z,98662.63
2023-05-06T22:51:05.211Z,98656.84
2023-05-06T22:53:32.561Z,98657.66
2023-05-06T22:55:59.552Z,98659.06
2023-05-06T22:58:26.345Z,98660.66
2023-05-06T23:00:54.968Z,98661.31
2023-05-06T23:03:22.551Z,98663.16
2023-05-06T23:05:49.702Z,98668.31
2023-05-06T23:08:17.111Z,98659.81
2023-05-06T23:10:46.696Z,98664.00
2023-05-06T23:13:13.806Z,98659.91
2023-05-06T23:15:40.826Z,98662.63
2023-05-06T23:18:08.074Z,98662.09
2023-05-06T23:20:34.885Z,98662.56
2023-05-06T23:23:02.041Z,98661.34
2023-05-06T23:25:28.920Z,98660.91
2023-05-06T23:27:56.188Z,98658.56
2023-05-06T23:30:27.536Z,98672.84
2023-05-06T23:32:54.374Z,98668.34
2023-05-06T23:35:21.141Z,98668.00
2023-05-06T23:37:48.397Z,98668.47
2023-05-06T23:40:15.406Z,98658.88
2023-05-06T23:42:42.142Z,98656.63
2023-05-06T23:45:12.579Z,98650.38
2023-05-06T23:47:39.960Z,98653.00
2023-05-06T23:50:07.265Z,98651.88
2023-05-06T23:52:34.199Z,98659.44
2023-05-06T23:55:01.073Z,98656.84
2023-05-06T23:57:27.880Z,98654.28
2023-05-06T23:59:54.921Z,98647.06
